• Join FlightAware (Why Join?)
  • Login
  • US Flag 
02:38AM EST


 

Airport Tracker/Info


-or-


 

Live Flight TrackerFlight Track Log ✈ UAL3740 ✈ 08-May-2013 ✈ KPVD - KIAD

Flight Track Log - Related Links

Times and Time Zones

All times are in EDT time to prevent confusion due to time zone crossing. See the UAL3740 flight status page for this flight to view local times or setup timezone preferences in your user account.

Time Position Orientation Groundspeed Altitude Reporting Facility
EDT Latitude Longitude Course Direction KTS MPH feet Rate Location/Type
10:46AM 41.7644 -71.4269 347° North 198 228 1,400  Level Boston Center
10:47AM 41.8314 -71.4511 345° North 242 278 3,400 2,250 Climbing Boston Center
10:48AM 41.9006 -71.4944 335° Northwest 263 303 5,900 2,500 Climbing Boston Center
10:49AM 41.9261 -71.5917 289° West 261 300 8,400 2,300 Climbing Boston Center
10:50AM 41.9353 -71.6811 278° West 275 316 10,500 2,350 Climbing Boston Center
10:51AM 41.9547 -71.8314 280° West 337 388 13,100 2,350 Climbing Boston Center
10:52AM 41.9867 -71.9708 287° West 359 413 15,200 2,050 Climbing Boston Center
10:53AM 42.0144 -72.1047 286° West 364 419 17,200 1,900 Climbing Boston Center
10:54AM 42.0064 -72.2389 265° West 364 419 19,000 1,850 Climbing Boston Center
10:55AM 41.9981 -72.3814 266° West 369 425 20,900 1,800 Climbing Boston Center
10:56AM 41.9897 -72.5211 265° West 375 432 22,600 1,350 Climbing Boston Center
10:57AM 41.9833 -72.6636 267° West 386 444 23,600 1,100 Climbing Boston Center
10:58AM 41.9747 -72.8142 266° West 392 451 24,800 1,150 Climbing Boston Center
10:59AM 41.9636 -72.9706 265° West 407 468 25,900 1,200 Climbing Boston Center
11:00AM 41.9253 -73.1236 251° West 421 484 27,200 1,250 Climbing Boston Center
11:01AM 41.8514 -73.2456 231° Southwest 413 475 28,400 1,150 Climbing Boston Center
11:02AM 41.7797 -73.3700 232° Southwest 419 482 29,500 900 Climbing Boston Center
11:03AM 41.7078 -73.4883 231° Southwest 425 489 30,200 783 Climbing Boston Center
11:05AM 41.5978 -73.7864 244° Southwest 439 505 31,900 587 Climbing New York Center
11:06AM 41.5631 -73.9292 252° West 445 512 32,000 51 Climbing New York Center
11:07AM 41.5169 -74.0903 249° West 464 534 32,000  Level New York Center
11:08AM 41.4811 -74.2492 253° West 464 534 32,000  Level New York Center
11:09AM 41.4067 -74.3697 231° Southwest 432 497 32,000 -49 Level New York Center
11:10AM 41.2892 -74.4628 211° Southwest 418 481 31,900 -559 Descending New York Center
11:11AM 41.2039 -74.5906 228° Southwest 443 510 30,900 -966 Descending New York Center
11:12AM 41.1186 -74.7178 228° Southwest 464 534 30,000 -443 Descending New York Center
11:13AM 41.0353 -74.8422 228° Southwest 469 540 30,000  Level New York Center
11:14AM 40.9497 -74.9633 227° Southwest 464 534 30,000 -305 Level New York Center
11:15AM 40.8617 -75.0897 227° Southwest 464 534 29,400 -857 Descending New York Center
11:16AM 40.7825 -75.2053 228° Southwest 451 519 28,300 -689 Descending New York Center
11:17AM 40.7011 -75.3206 227° Southwest 445 512 28,000 -149 Descending New York Center
11:18AM 40.6314 -75.4472 234° Southwest 440 506 28,000 -1,017 Level New York Center
11:19AM 40.5739 -75.5825 241° Southwest 435 501 26,000 -2,288 Descending New York Center
11:20AM 40.5164 -75.7150 240° Southwest 430 495 23,500 -2,500 Descending New York Center
11:21AM 40.4556 -75.8253 234° Southwest 407 468 21,000 -1,736 Descending New York Center
11:22AM 40.3825 -75.9208 225° Southwest 387 445 20,000 -496 Descending New York Center
11:23AM 40.3097 -76.0106 223° Southwest 376 433 20,000 -99 Level New York Center
11:24AM 40.2367 -76.1056 225° Southwest 371 427 19,800 -893 Descending New York Center
11:25AM 40.1758 -76.2097 233° Southwest 365 420 18,200 -1,525 Descending New York Center
11:26AM 40.1228 -76.3169 237° Southwest 365 420 16,800 -1,424 Descending New York Center
11:27AM 40.0744 -76.4133 237° Southwest 359 413 15,400 -527 Descending New York Center
11:30AM 39.9500 -76.6667 237° Southwest 352 405 15,000 -117 Descending Potomac TRACON
11:31AM 39.9000 -76.7833 241° Southwest 355 409 15,000 -100 Level Potomac TRACON
11:32AM 39.8500 -76.8833 237° Southwest 320 368 14,800 -600 Descending Potomac TRACON
11:33AM 39.8333 -77.0000 259° West 320 368 13,800 -947 Descending Potomac TRACON
11:34AM 39.8333 -77.1000 270° West 317 365 13,000 -1,222 Descending Potomac TRACON
11:35AM 39.7667 -77.1667 218° Southwest 292 336 11,600 -1,526 Descending Potomac TRACON
11:36AM 39.7167 -77.2333 226° Southwest 285 328 10,100 -800 Descending Potomac TRACON
11:37AM 39.6667 -77.3000 226° Southwest 263 303 10,000 -300 Descending Potomac TRACON
11:38AM 39.6167 -77.3833 232° Southwest 264 304 9,500 -1,000 Descending Potomac TRACON
11:39AM 39.5500 -77.4000 191° South 255 293 8,000 -1,409 Descending Potomac TRACON
11:40AM 39.4833 -77.4000 180° South 248 285 6,800 -1,409 Descending Potomac TRACON
11:41AM 39.4167 -77.4000 180° South 246 283 5,300 -1,400 Descending Potomac TRACON
11:42AM 39.3667 -77.4333 207° Southwest 236 272 4,000 -1,150 Descending Potomac TRACON
11:43AM 39.3000 -77.4333 180° South 227 261 3,000 -496 Descending Potomac TRACON
11:44AM 39.2333 -77.4333 180° South 215 247 3,000  Level Potomac TRACON
11:45AM 39.1833 -77.4333 180° South 192 221 3,000  Level Potomac TRACON
11:46AM 39.1333 -77.4333 180° South 192 221 3,000 -99 Level Potomac TRACON
11:47AM 39.0667 -77.4333 180° South 197 227 2,800 -645 Descending Potomac TRACON
11:48AM 39.0167 -77.4333 180° South 184 212 1,700 -950 Descending Potomac TRACON
11:49AM 38.9833 -77.4333 180° South 142 163 900 -800 Descending Potomac TRACON
11:51AM 38.9474 -77.4599 180° South  Level Estimated
11:58AM 38.9474 -77.4599 349° North  Level Estimated